Time;durP1;ratioP1;P1;durP2;ratioP2;P2;SDS_P1;SDS_P2;PMS_P1;PMS_P2;Temp;Humidity;BMP_temperature;BMP_pressure;BME280_temperature;BME280_humidity;BME280_pressure;Samples;Min_cycle;Max_cycle;Signal;HPM_P1;HPM_P2
2022/06/19 00:00:58;;;;;;;15.53;11.10;;;;;;;15.92;91.44;99446.66;5037575;28;20307;-61
2022/06/19 00:03:33;;;;;;;19.63;12.70;;;;;;;16.25;90.80;99451.16;5039092;28;20598;-61
2022/06/19 00:06:05;;;;;;;17.83;11.87;;;;;;;16.39;90.17;99451.25;5039012;28;20648;-61
2022/06/19 00:08:36;;;;;;;20.17;13.60;;;;;;;16.46;89.54;99445.66;5038961;28;20530;-61
2022/06/19 00:11:11;;;;;;;18.00;12.83;;;;;;;16.09;89.20;99390.47;5038951;28;20347;-61
2022/06/19 00:13:42;;;;;;;20.63;13.23;;;;;;;16.52;88.99;99458.50;5034678;28;20288;-61
2022/06/19 00:16:13;;;;;;;17.63;12.13;;;;;;;16.46;88.61;99462.31;5027857;28;20272;-62
2022/06/19 00:18:43;;;;;;;18.57;12.30;;;;;;;16.33;88.44;99450.72;5033745;28;20291;-62
2022/06/19 00:21:16;;;;;;;20.90;13.73;;;;;;;16.21;88.54;99457.50;5027926;28;20287;-61
2022/06/19 00:23:47;;;;;;;21.47;13.97;;;;;;;16.20;88.89;99449.66;5035273;28;20319;-61
2022/06/19 00:26:19;;;;;;;23.77;15.83;;;;;;;16.23;88.91;99455.63;5032582;28;20284;-60
2022/06/19 00:28:50;;;;;;;23.13;15.80;;;;;;;16.28;88.93;99453.59;5038000;28;20295;-62
2022/06/19 00:31:20;;;;;;;26.33;16.57;;;;;;;16.33;89.02;99451.59;5019413;28;20289;-61
2022/06/19 00:33:51;;;;;;;28.00;17.67;;;;;;;16.28;89.00;99458.88;5021179;28;20441;-61
2022/06/19 00:36:25;;;;;;;33.20;17.53;;;;;;;16.22;89.31;99458.34;5038167;28;20307;-61
2022/06/19 00:38:55;;;;;;;26.80;16.80;;;;;;;16.19;89.61;99454.09;5038066;28;20514;-61
2022/06/19 00:41:32;;;;;;;28.67;18.23;;;;;;;16.22;89.92;99451.28;5038128;28;20291;-61
2022/06/19 00:44:05;;;;;;;35.57;19.03;;;;;;;16.21;89.93;99452.22;5038261;28;20284;-61
2022/06/19 00:46:48;;;;;;;35.00;18.30;;;;;;;15.95;89.80;99404.38;5038373;28;20327;-65
2022/06/19 00:49:23;;;;;;;26.87;17.93;;;;;;;16.14;90.26;99440.28;5037926;28;20464;-61
2022/06/19 00:52:02;;;;;;;30.67;17.13;;;;;;;16.17;90.23;99450.66;5026060;28;20273;-61
2022/06/19 00:54:35;;;;;;;;;;;;;;;16.22;90.45;99447.81;5018904;28;20659;-61
2022/06/19 00:57:08;;;;;;;38.47;19.43;;;;;;;16.08;90.09;99412.50;5018279;28;19929;-61
2022/06/19 00:59:40;;;;;;;28.57;18.97;;;;;;;16.11;90.45;99419.38;5017924;28;20596;-62
2022/06/19 01:02:12;;;;;;;31.53;18.97;;;;;;;16.28;90.61;99448.34;5020139;28;20305;-62
2022/06/19 01:04:48;;;;;;;39.00;20.53;;;;;;;16.25;90.14;99443.25;5028801;28;20284;-61
2022/06/19 01:07:21;;;;;;;28.83;17.83;;;;;;;16.19;90.06;99446.19;5035892;28;20342;-62
2022/06/19 01:09:53;;;;;;;31.23;19.23;;;;;;;16.11;90.03;99435.19;5037400;28;20284;-62
2022/06/19 01:12:27;;;;;;;35.10;20.37;;;;;;;16.04;89.86;99449.63;5035938;28;20603;-61
2022/06/19 01:15:03;;;;;;;34.97;19.70;;;;;;;15.92;89.62;99435.28;5037459;28;20882;-61
2022/06/19 01:17:35;;;;;;;35.67;19.07;;;;;;;15.73;89.65;99403.78;5033500;28;20312;-62
2022/06/19 01:20:09;;;;;;;29.20;19.07;;;;;;;16.02;90.32;99435.66;5027125;28;20383;-62
2022/06/19 01:22:48;;;;;;;30.73;19.17;;;;;;;16.14;90.25;99425.31;5027306;28;20292;-61
2022/06/19 01:25:26;;;;;;;37.73;20.43;;;;;;;16.31;90.12;99429.72;5025993;28;20335;-62
2022/06/19 01:30:50;;;;;;;35.43;18.03;;;;;;;16.43;89.36;99425.56;5026421;28;20285;-62
2022/06/19 01:33:25;;;;;;;33.50;19.43;;;;;;;16.34;88.72;99421.63;5027248;28;20320;-62
2022/06/19 01:35:59;;;;;;;29.43;18.23;;;;;;;16.10;88.90;99391.31;5022472;28;20552;-62
2022/06/19 01:38:30;;;;;;;31.27;17.50;;;;;;;16.33;89.06;99419.94;5025034;28;20287;-62
2022/06/19 01:41:09;;;;;;;29.33;16.27;;;;;;;16.47;88.66;99411.28;5025843;28;20383;-61
2022/06/19 01:43:40;;;;;;;29.63;17.37;;;;;;;16.79;88.29;99412.19;5025422;28;20289;-61
2022/06/19 01:46:11;;;;;;;27.80;16.33;;;;;;;17.09;87.70;99416.69;5025078;28;20292;-61
2022/06/19 01:48:42;;;;;;;27.93;16.40;;;;;;;17.29;86.73;99404.13;5025994;28;20595;-61
2022/06/19 01:51:14;;;;;;;30.03;16.97;;;;;;;17.56;86.08;99402.53;5024992;28;20313;-61
2022/06/19 01:53:48;;;;;;;25.87;16.37;;;;;;;17.71;85.43;99411.34;5025942;28;20304;-62
2022/06/19 01:56:21;;;;;;;27.87;16.33;;;;;;;17.65;84.70;99407.28;5025357;28;20288;-62
2022/06/19 01:58:57;;;;;;;22.60;15.23;;;;;;;17.51;84.54;99403.75;5025811;28;21508;-62
2022/06/19 02:01:29;;;;;;;30.73;16.53;;;;;;;17.52;84.80;99401.00;5028835;28;20379;-62
2022/06/19 02:04:02;;;;;;;32.07;17.00;;;;;;;17.50;85.39;99397.63;5024202;28;20296;-62
2022/06/19 02:06:36;;;;;;;30.47;17.20;;;;;;;17.38;84.70;99390.41;5026929;28;20351;-62
2022/06/19 02:09:08;;;;;;;25.30;16.13;;;;;;;17.25;84.34;99385.84;5026613;28;20372;-62
2022/06/19 02:11:40;;;;;;;24.00;14.47;;;;;;;17.14;84.13;99397.94;5025239;28;20277;-63
2022/06/19 02:14:13;;;;;;;27.23;16.33;;;;;;;17.11;84.92;99401.59;5022831;28;20368;-62
2022/06/19 02:16:46;;;;;;;27.33;16.60;;;;;;;17.15;85.12;99374.13;5025414;28;20293;-61
2022/06/19 02:19:17;;;;;;;27.10;16.37;;;;;;;17.28;85.04;99376.03;5022328;28;20293;-61
2022/06/19 02:21:52;;;;;;;29.63;18.13;;;;;;;17.54;84.61;99393.84;5033236;28;20374;-62
2022/06/19 02:24:26;;;;;;;31.07;18.47;;;;;;;17.69;84.45;99379.72;5038854;28;20288;-61
2022/06/19 02:26:59;;;;;;;32.73;20.00;;;;;;;18.01;83.73;99376.94;5040101;28;20362;-61
2022/06/19 02:29:30;;;;;;;28.07;17.27;;;;;;;18.21;82.18;99372.25;5039461;28;20311;-62
2022/06/19 02:32:01;;;;;;;36.40;21.13;;;;;;;18.38;81.35;99369.38;5040826;28;20347;-61
2022/06/19 02:34:37;;;;;;;32.03;16.87;;;;;;;18.40;80.31;99362.22;5040080;28;20320;-63
2022/06/19 02:37:12;;;;;;;25.90;16.77;;;;;;;18.25;80.52;99348.16;5039990;28;20288;-62
2022/06/19 02:39:48;;;;;;;24.97;15.37;;;;;;;18.35;80.46;99335.22;5036119;28;20359;-61
2022/06/19 02:42:39;;;;;;;23.50;13.87;;;;;;;18.61;80.55;99359.16;5040466;28;20289;-62
2022/06/19 02:45:14;;;;;;;28.77;16.70;;;;;;;18.51;79.95;99349.13;5044450;28;20296;-61
2022/06/19 02:47:46;;;;;;;29.80;19.63;;;;;;;18.52;79.90;99356.16;5043947;28;20347;-61
2022/06/19 02:50:19;;;;;;;27.83;16.33;;;;;;;18.38;79.75;99342.94;5042878;28;20299;-61
2022/06/19 02:52:51;;;;;;;25.10;14.67;;;;;;;18.18;79.99;99346.84;5043614;28;20565;-61
2022/06/19 02:55:40;;;;;;;28.53;16.90;;;;;;;18.13;80.89;99345.44;5044229;28;20314;-61
2022/06/19 02:58:13;;;;;;;27.50;17.10;;;;;;;18.15;81.19;99340.91;5044641;28;20286;-61
2022/06/19 03:00:44;;;;;;;29.47;21.53;;;;;;;18.33;81.15;99339.75;5046012;28;20330;-61
2022/06/19 03:03:19;;;;;;;27.43;15.93;;;;;;;18.45;80.87;99328.38;5045048;28;20311;-61
2022/06/19 03:05:50;;;;;;;23.37;14.33;;;;;;;18.34;80.34;99336.13;5044446;28;20349;-62
2022/06/19 03:08:21;;;;;;;27.90;18.43;;;;;;;18.14;80.33;99339.19;5045611;28;20295;-61
2022/06/19 03:10:51;;;;;;;25.80;16.60;;;;;;;18.14;80.92;99333.91;5045800;28;20298;-61
2022/06/19 03:13:25;;;;;;;25.23;17.03;;;;;;;18.24;80.92;99330.56;5046319;28;20287;-62
2022/06/19 03:16:03;;;;;;;21.27;15.23;;;;;;;18.27;80.26;99329.53;5043679;28;20280;-61
2022/06/19 03:18:34;;;;;;;23.60;16.27;;;;;;;18.29;80.18;99327.66;5044660;28;20303;-62
2022/06/19 03:21:05;;;;;;;26.17;14.73;;;;;;;18.10;79.81;99286.50;5044094;28;20390;-61
2022/06/19 03:23:36;;;;;;;21.30;13.63;;;;;;;18.26;79.33;99306.69;5043874;28;20284;-62
2022/06/19 03:26:07;;;;;;;21.47;13.10;;;;;;;18.26;79.40;99306.69;5045394;28;20448;-62
2022/06/19 03:28:39;;;;;;;19.83;13.03;;;;;;;18.36;79.95;99305.16;5045169;28;20330;-61
2022/06/19 03:31:12;;;;;;;20.13;12.47;;;;;;;18.52;79.25;99302.38;5045353;28;20296;-60
2022/06/19 03:33:43;;;;;;;19.03;13.30;;;;;;;18.83;78.92;99290.69;5044038;28;20337;-61
2022/06/19 03:36:14;;;;;;;19.33;12.43;;;;;;;19.25;78.87;99291.41;5045054;28;20593;-61
2022/06/19 03:38:45;;;;;;;19.37;12.97;;;;;;;19.73;78.36;99304.91;5043762;28;20478;-60
2022/06/19 03:41:15;;;;;;;25.03;12.77;;;;;;;20.28;76.89;99317.91;5045489;28;20299;-62
2022/06/19 03:43:48;;;;;;;22.23;12.00;;;;;;;20.54;74.34;99319.50;5045345;28;20298;-61
2022/06/19 03:46:20;;;;;;;17.53;11.70;;;;;;;20.48;73.14;99322.63;5045168;28;20315;-61
2022/06/19 03:48:53;;;;;;;19.00;12.40;;;;;;;20.20;73.06;99329.91;5045447;28;20343;-64
2022/06/19 03:51:24;;;;;;;19.40;12.13;;;;;;;19.95;73.22;99329.94;5044160;28;20292;-61
2022/06/19 03:53:56;;;;;;;16.07;10.70;;;;;;;19.45;73.52;99321.00;5045041;28;20283;-63
2022/06/19 03:56:29;;;;;;;19.10;12.33;;;;;;;19.02;74.78;99331.81;5044859;28;20292;-62
2022/06/19 03:59:02;;;;;;;19.70;11.30;;;;;;;18.69;75.63;99330.38;5044995;28;20324;-62
2022/06/19 04:01:35;;;;;;;15.17;10.43;;;;;;;18.31;76.58;99323.13;5044865;28;20300;-62
2022/06/19 04:04:06;;;;;;;16.57;11.50;;;;;;;17.83;78.05;99298.81;5045117;28;20284;-63
2022/06/19 04:06:41;;;;;;;15.30;10.87;;;;;;;17.74;79.00;99331.88;5045103;28;20272;-61
2022/06/19 04:09:16;;;;;;;16.50;11.27;;;;;;;17.64;80.21;99331.59;5042707;28;20304;-61
2022/06/19 04:11:46;;;;;;;15.33;10.77;;;;;;;17.72;80.59;99327.63;5044815;28;20303;-61
2022/06/19 04:14:19;;;;;;;17.33;11.00;;;;;;;17.81;80.63;99327.13;5044868;28;20299;-61
2022/06/19 04:16:49;;;;;;;15.30;11.47;;;;;;;17.85;80.38;99328.63;5044473;28;20319;-61
2022/06/19 04:19:20;;;;;;;16.60;11.37;;;;;;;17.99;80.53;99331.25;5044440;28;21150;-60
2022/06/19 04:21:51;;;;;;;15.70;11.13;;;;;;;18.09;79.85;99321.81;5043829;28;20329;-61
2022/06/19 04:24:21;;;;;;;18.90;12.77;;;;;;;18.14;79.74;99323.31;5043769;28;20647;-60
2022/06/19 04:26:52;;;;;;;15.87;11.37;;;;;;;18.23;79.58;99317.47;5042721;28;20288;-61
2022/06/19 04:29:25;;;;;;;15.40;10.93;;;;;;;18.20;79.10;99307.09;5041815;28;20296;-62
2022/06/19 04:31:56;;;;;;;16.30;10.97;;;;;;;18.05;79.23;99315.03;5044377;28;20730;-61
2022/06/19 04:34:26;;;;;;;19.57;12.83;;;;;;;18.13;79.86;99313.72;5043350;28;20292;-61
2022/06/19 04:36:57;;;;;;;19.17;14.60;;;;;;;18.19;79.37;99305.38;5044491;28;20329;-61
2022/06/19 04:39:28;;;;;;;17.03;11.30;;;;;;;18.54;79.57;99309.25;5044482;28;20291;-61
2022/06/19 04:41:58;;;;;;;17.27;11.90;;;;;;;18.82;78.82;99304.88;5043938;28;20365;-60
2022/06/19 04:44:31;;;;;;;17.23;11.83;;;;;;;19.09;77.59;99317.22;5043702;28;20369;-60
2022/06/19 04:47:01;;;;;;;17.23;12.37;;;;;;;19.32;76.38;99308.59;5040751;28;20295;-61
2022/06/19 04:49:32;;;;;;;17.93;13.00;;;;;;;19.59;75.32;99305.00;5041789;28;20287;-61
2022/06/19 04:52:03;;;;;;;19.23;11.23;;;;;;;19.54;74.86;99301.81;5042521;28;20320;-60
2022/06/19 04:54:34;;;;;;;14.57;10.83;;;;;;;19.62;75.03;99310.09;5041933;28;20291;-62
2022/06/19 04:57:05;;;;;;;14.47;10.77;;;;;;;19.47;74.81;99308.47;5043714;28;20276;-60
2022/06/19 04:59:37;;;;;;;16.27;11.33;;;;;;;19.44;75.27;99308.69;5042881;28;20359;-60
2022/06/19 05:02:08;;;;;;;15.10;11.50;;;;;;;19.56;74.93;99306.03;5043591;28;20311;-60
2022/06/19 05:04:39;;;;;;;16.10;10.83;;;;;;;19.49;74.71;99277.44;5042334;28;20288;-60
2022/06/19 05:07:09;;;;;;;15.83;10.80;;;;;;;19.66;74.46;99293.00;5040549;28;20697;-60
2022/06/19 05:09:40;;;;;;;14.27;10.10;;;;;;;19.90;74.89;99289.66;5042615;28;20351;-59
2022/06/19 05:12:17;;;;;;;18.10;10.23;;;;;;;19.96;73.32;99286.56;5042232;28;20284;-60
2022/06/19 05:14:50;;;;;;;10.87;8.73;;;;;;;19.78;73.30;99284.25;5042006;28;20526;-60
2022/06/19 05:17:21;;;;;;;13.47;10.07;;;;;;;19.71;73.54;99280.31;5041429;28;20334;-60
2022/06/19 05:19:52;;;;;;;14.37;11.10;;;;;;;19.72;72.97;99268.78;5041421;28;20282;-60
2022/06/19 05:22:23;;;;;;;12.80;9.60;;;;;;;20.03;74.03;99269.25;5039715;28;20309;-61
2022/06/19 05:24:54;;;;;;;16.00;12.63;;;;;;;20.15;73.51;99265.72;5041305;28;20510;-60
2022/06/19 05:27:25;;;;;;;10.43;6.70;;;;;;;20.21;72.63;99270.56;5036917;28;20291;-58
2022/06/19 05:29:59;;;;;;;11.63;9.63;;;;;;;20.17;72.10;99263.81;5040771;28;20372;-60
2022/06/19 05:32:30;;;;;;;10.23;8.10;;;;;;;20.08;71.68;99263.63;5042939;28;20280;-59
2022/06/19 05:35:00;;;;;;;9.80;6.47;;;;;;;19.85;71.36;99246.72;5043271;28;20601;-60
2022/06/19 05:37:31;;;;;;;12.80;9.73;;;;;;;19.95;72.12;99263.66;5043201;28;20505;-59
2022/06/19 05:40:02;;;;;;;10.07;6.70;;;;;;;19.92;71.66;99263.84;5042281;28;20405;-59
2022/06/19 05:42:32;;;;;;;6.17;5.43;;;;;;;19.93;72.00;99261.09;5042601;28;20391;-59
2022/06/19 05:45:05;;;;;;;8.97;6.00;;;;;;;19.85;71.55;99262.63;5043068;28;20319;-60
2022/06/19 05:47:36;;;;;;;15.40;9.30;;;;;;;19.82;71.85;99269.00;5043034;28;20295;-59
2022/06/19 05:50:07;;;;;;;9.77;6.77;;;;;;;19.82;72.11;99256.56;5042771;28;20295;-58
2022/06/19 05:52:38;;;;;;;19.70;8.70;;;;;;;19.73;72.83;99259.88;5043283;28;20298;-60
2022/06/19 05:55:12;;;;;;;11.30;7.20;;;;;;;19.71;73.47;99261.78;5043068;28;20315;-59
2022/06/19 05:57:42;;;;;;;9.90;7.20;;;;;;;19.64;73.44;99265.75;5043016;28;20322;-59
2022/06/19 06:00:15;;;;;;;13.80;7.77;;;;;;;19.45;73.52;99275.97;5042937;28;20284;-59
2022/06/19 06:02:46;;;;;;;13.37;8.80;;;;;;;19.22;73.44;99273.09;5043037;28;20319;-59
2022/06/19 06:05:17;;;;;;;14.50;9.43;;;;;;;19.12;74.37;99264.91;5042912;28;20288;-59
2022/06/19 06:07:49;;;;;;;14.37;10.23;;;;;;;19.10;75.07;99273.91;5042710;28;20733;-60
2022/06/19 06:10:19;;;;;;;22.80;11.43;;;;;;;19.06;75.12;99275.91;5042824;28;20284;-60
2022/06/19 06:12:50;;;;;;;17.97;12.00;;;;;;;18.98;75.43;99274.75;5042639;28;20322;-60
2022/06/19 06:15:23;;;;;;;19.63;12.87;;;;;;;18.87;76.39;99276.31;5042911;28;20276;-60
2022/06/19 06:17:53;;;;;;;19.30;12.47;;;;;;;18.64;76.41;99279.56;5045283;28;20283;-60
2022/06/19 06:20:24;;;;;;;20.00;12.63;;;;;;;18.39;77.16;99265.28;5046705;28;20283;-60
2022/06/19 06:22:57;;;;;;;24.87;14.77;;;;;;;18.49;77.46;99287.53;5046803;28;20329;-60
2022/06/19 06:25:27;;;;;;;23.90;15.30;;;;;;;18.47;77.54;99284.19;5047076;28;20287;-60
2022/06/19 06:27:58;;;;;;;18.90;13.67;;;;;;;18.49;78.49;99286.69;5046896;28;20313;-60
2022/06/19 06:30:30;;;;;;;20.10;13.60;;;;;;;18.49;78.85;99287.53;5046566;28;20502;-60
2022/06/19 06:33:05;;;;;;;21.60;13.27;;;;;;;18.42;78.98;99280.97;5046764;28;20355;-59
2022/06/19 06:35:36;;;;;;;20.80;14.07;;;;;;;18.43;79.36;99287.94;5046485;28;20276;-60
2022/06/19 06:38:07;;;;;;;18.70;13.40;;;;;;;18.43;78.88;99290.59;5046671;28;20643;-60
2022/06/19 06:40:38;;;;;;;26.17;19.20;;;;;;;18.44;78.66;99289.63;5046727;28;20287;-60
2022/06/19 06:43:09;;;;;;;18.40;12.80;;;;;;;18.46;78.91;99287.75;5046732;28;20648;-60
2022/06/19 06:45:41;;;;;;;21.10;16.03;;;;;;;18.38;78.52;99278.63;5046688;28;20337;-60
2022/06/19 06:48:12;;;;;;;22.70;14.37;;;;;;;18.27;78.98;99292.50;5046419;28;20295;-60
2022/06/19 06:50:43;;;;;;;24.37;17.93;;;;;;;18.09;78.83;99283.94;5046066;28;20568;-60
2022/06/19 06:53:16;;;;;;;19.13;12.87;;;;;;;17.92;79.18;99282.34;5046123;28;20284;-60
2022/06/19 06:55:47;;;;;;;18.83;14.80;;;;;;;17.88;79.65;99296.72;5046042;28;20705;-60
2022/06/19 06:58:18;;;;;;;23.73;15.83;;;;;;;17.79;79.88;99291.97;5045886;28;20513;-60
2022/06/19 07:00:50;;;;;;;25.73;14.80;;;;;;;17.69;80.56;99297.81;5045481;28;20334;-60
2022/06/19 07:03:21;;;;;;;24.67;17.70;;;;;;;17.68;81.27;99296.13;5045862;28;20634;-60
2022/06/19 07:05:52;;;;;;;21.57;15.13;;;;;;;17.61;81.81;99281.59;5045746;28;20503;-60
2022/06/19 07:08:30;;;;;;;25.90;15.63;;;;;;;17.54;82.19;99282.91;5046116;28;20284;-60
2022/06/19 07:11:01;;;;;;;23.70;15.57;;;;;;;17.48;82.66;99280.66;5045993;28;20284;-61
2022/06/19 07:13:33;;;;;;;25.47;16.93;;;;;;;17.44;83.42;99277.31;5045764;28;20288;-61
2022/06/19 07:16:06;;;;;;;23.27;15.10;;;;;;;17.36;83.46;99273.47;5046019;28;20361;-61
2022/06/19 07:18:37;;;;;;;22.83;14.77;;;;;;;17.36;83.98;99278.75;5046037;28;20537;-62
2022/06/19 07:21:10;;;;;;;20.23;14.37;;;;;;;17.34;84.17;99288.53;5045677;28;20311;-63
2022/06/19 07:23:42;;;;;;;23.37;14.23;;;;;;;17.22;84.24;99283.06;5045999;28;20372;-62
2022/06/19 07:26:17;;;;;;;25.57;15.17;;;;;;;17.23;84.70;99287.38;5045995;28;20271;-62
2022/06/19 07:28:49;;;;;;;19.97;14.37;;;;;;;17.11;85.02;99287.25;5044469;28;20334;-60
2022/06/19 07:31:30;;;;;;;18.60;13.17;;;;;;;17.05;85.37;99296.41;5045235;28;20284;-61
2022/06/19 07:34:02;;;;;;;20.17;14.13;;;;;;;17.04;85.89;99294.69;5045185;28;20295;-62
2022/06/19 07:36:34;;;;;;;28.13;15.33;;;;;;;17.01;86.09;99294.88;5045520;28;20452;-62
2022/06/19 07:39:06;;;;;;;22.37;15.03;;;;;;;16.96;86.23;99291.66;5045416;28;20285;-61
2022/06/19 07:41:38;;;;;;;19.07;13.57;;;;;;;16.88;86.18;99304.44;5044992;28;20651;-60
2022/06/19 07:44:09;;;;;;;18.10;13.20;;;;;;;16.79;86.65;99316.38;5045250;28;20311;-60
2022/06/19 07:52:15;;;;;;;21.17;13.13;;;;;;;16.07;87.85;99249.19;5044948;28;20289;-60
2022/06/19 07:54:47;;;;;;;28.87;22.40;;;;;;;16.43;88.19;99303.44;5045218;28;20276;-59
2022/06/19 07:57:21;;;;;;;26.27;20.23;;;;;;;15.98;87.96;99244.44;5044985;28;20291;-59
2022/06/19 07:59:53;;;;;;;36.23;29.23;;;;;;;16.17;88.10;99287.25;5044727;28;20295;-59
2022/06/19 08:02:25;;;;;;;30.70;24.93;;;;;;;16.03;88.62;99279.28;5044033;28;20300;-58
2022/06/19 08:04:58;;;;;;;34.73;24.93;;;;;;;16.05;89.25;99282.66;5044928;28;20372;-59
2022/06/19 08:07:28;;;;;;;15.17;10.40;;;;;;;16.00;89.27;99274.16;5044162;28;20707;-59
2022/06/19 08:09:59;;;;;;;14.47;10.07;;;;;;;15.98;89.55;99281.31;5045016;28;20288;-58
2022/06/19 08:12:30;;;;;;;12.43;6.83;;;;;;;15.75;86.34;99278.16;5041232;28;20327;-58
2022/06/19 08:15:00;;;;;;;17.03;7.03;;;;;;;15.24;85.71;99264.09;5044298;28;20347;-59
2022/06/19 08:17:33;;;;;;;14.93;7.27;;;;;;;14.90;86.12;99271.06;5043461;28;20292;-59
2022/06/19 08:20:03;;;;;;;13.07;7.07;;;;;;;14.73;85.54;99289.47;5043370;28;20302;-59
2022/06/19 08:22:34;;;;;;;12.27;6.57;;;;;;;14.44;85.38;99289.91;5044143;28;20319;-59
2022/06/19 08:25:05;;;;;;;12.13;6.03;;;;;;;14.10;85.83;99280.13;5042564;28;20726;-58
2022/06/19 08:27:40;;;;;;;14.33;6.27;;;;;;;13.88;86.30;99274.16;5044536;28;20287;-59
2022/06/19 08:30:13;;;;;;;16.07;6.60;;;;;;;13.87;86.69;99282.97;5042864;28;20295;-60
2022/06/19 08:32:46;;;;;;;14.13;6.37;;;;;;;13.70;86.66;99291.59;5044026;28;20339;-60
2022/06/19 08:35:16;;;;;;;14.15;6.72;;;;;;;13.48;87.08;99292.56;5044044;28;20363;-61
2022/06/19 08:37:49;;;;;;;11.77;5.63;;;;;;;13.25;87.24;99290.88;5044352;28;20060;-59
2022/06/19 08:40:34;;;;;;;11.32;6.38;;;;;;;13.05;87.94;99306.63;5043263;28;20528;-59
2022/06/19 08:43:18;;;;;;;10.18;5.93;;;;;;;12.67;88.00;99303.81;5043743;28;20061;-59
2022/06/19 08:46:08;;;;;;;10.30;5.97;;;;;;;12.47;88.73;99308.06;5043845;28;20045;-59
2022/06/19 08:49:01;;;;;;;11.32;6.00;;;;;;;12.22;89.00;99283.75;5044109;28;21154;-59
2022/06/19 08:51:40;;;;;;;10.63;5.78;;;;;;;12.34;88.70;99321.72;5043861;28;20045;-59
2022/06/19 08:54:30;;;;;;;12.00;5.40;;;;;;;12.11;88.69;99325.22;5042788;28;20041;-59
2022/06/19 08:57:03;;;;;;;;;;;;;;;12.09;89.23;99339.22;5043206;28;20302;-59
2022/06/19 08:59:48;;;;;;;10.55;5.28;;;;;;;12.08;88.71;99337.50;5042280;28;19928;-59
2022/06/19 09:02:28;;;;;;;10.60;5.05;;;;;;;12.11;89.10;99354.88;5042106;28;20379;-59
2022/06/19 09:08:11;;;;;;;9.70;5.50;;;;;;;12.15;88.71;99363.47;5042042;28;20076;-59
2022/06/19 09:10:47;;;;;;;13.10;6.47;;;;;;;12.00;88.60;99359.63;5043727;28;20109;-60
2022/06/19 09:13:33;;;;;;;10.40;5.88;;;;;;;11.79;88.82;99359.47;5043404;28;20053;-60
2022/06/19 09:16:08;;;;;;;11.73;6.30;;;;;;;11.88;89.26;99371.41;5042696;28;20392;-60
2022/06/19 09:18:46;;;;;;;12.27;5.97;;;;;;;11.83;89.69;99368.06;5043619;28;20057;-60
2022/06/19 09:21:30;;;;;;;12.23;6.25;;;;;;;11.77;89.38;99358.66;5043201;28;20290;-60
2022/06/19 09:24:26;;;;;;;12.27;6.32;;;;;;;11.70;90.16;99366.78;5043429;28;20045;-60
2022/06/19 09:26:59;;;;;;;11.95;6.15;;;;;;;11.68;90.20;99363.38;5043128;28;20060;-60
2022/06/19 09:29:35;;;;;;;15.77;6.53;;;;;;;11.63;90.66;99356.56;5043456;28;20078;-60
2022/06/19 09:32:15;;;;;;;14.80;6.97;;;;;;;11.52;91.06;99342.97;5043345;28;20053;-60
2022/06/19 09:34:53;;;;;;;15.70;6.60;;;;;;;11.51;91.39;99309.91;5043232;28;20084;-60
2022/06/19 09:37:32;;;;;;;13.20;6.28;;;;;;;11.78;91.61;99343.81;5042970;28;20048;-59
2022/06/19 09:40:09;;;;;;;12.20;6.57;;;;;;;11.74;91.25;99347.47;5043248;28;20049;-59
2022/06/19 09:42:43;;;;;;;11.98;6.90;;;;;;;11.74;91.00;99357.94;5043256;28;20107;-59
2022/06/19 09:45:18;;;;;;;13.48;6.68;;;;;;;11.64;90.97;99357.41;5043220;28;20057;-59
2022/06/19 09:47:55;;;;;;;12.90;5.85;;;;;;;11.52;91.13;99363.91;5042790;28;20063;-59
2022/06/19 09:50:48;;;;;;;14.00;6.38;;;;;;;11.38;90.84;99353.06;5043211;28;20056;-59
2022/06/19 09:53:27;;;;;;;9.52;5.60;;;;;;;11.28;91.07;99349.06;5042351;28;20065;-59
2022/06/19 09:56:23;;;;;;;14.30;5.90;;;;;;;11.18;91.77;99352.00;5043140;28;20072;-59
2022/06/19 09:59:00;;;;;;;11.95;5.38;;;;;;;11.20;91.75;99363.25;5042885;28;20414;-59
2022/06/19 10:01:32;;;;;;;11.20;5.65;;;;;;;11.13;91.67;99350.41;5042365;28;20314;-59
2022/06/19 10:04:05;;;;;;;12.77;6.15;;;;;;;11.07;92.01;99351.47;5042846;28;20056;-59
2022/06/19 10:06:40;;;;;;;12.00;7.05;;;;;;;11.21;92.15;99357.13;5042395;28;20052;-59
2022/06/19 10:09:22;;;;;;;12.25;5.95;;;;;;;11.29;92.02;99361.25;5042757;28;20041;-59
2022/06/19 10:11:56;;;;;;;11.63;6.05;;;;;;;10.76;91.37;99300.22;5042506;28;20079;-59
2022/06/19 10:14:33;;;;;;;11.27;5.55;;;;;;;11.00;91.46;99361.28;5042343;28;20049;-59
2022/06/19 10:17:12;;;;;;;11.60;6.50;;;;;;;11.00;91.59;99356.06;5042712;28;20037;-60
2022/06/19 10:19:47;;;;;;;11.00;5.75;;;;;;;10.78;91.73;99340.22;5042702;28;20536;-59
2022/06/19 10:22:29;;;;;;;9.32;5.22;;;;;;;10.89;92.13;99367.78;5042437;28;20120;-59
2022/06/19 10:25:22;;;;;;;11.95;5.95;;;;;;;10.88;92.39;99351.22;5042342;28;20344;-59
2022/06/19 10:28:04;;;;;;;13.55;5.85;;;;;;;10.87;92.15;99359.13;5042506;28;20060;-59
2022/06/19 10:30:40;;;;;;;13.93;5.55;;;;;;;10.88;92.27;99355.59;5042675;28;20460;-59
2022/06/19 10:33:28;;;;;;;16.23;5.75;;;;;;;10.91;92.40;99360.75;5042902;28;20438;-59
2022/06/19 10:36:03;;;;;;;15.43;5.93;;;;;;;10.89;92.15;99375.63;5042153;28;20108;-59
2022/06/19 10:38:52;;;;;;;14.20;6.05;;;;;;;10.85;91.95;99376.59;5042785;28;20115;-59
2022/06/19 10:44:34;;;;;;;39.95;7.00;;;;;;;10.78;92.17;99387.28;5041822;28;20189;-60
2022/06/19 10:47:13;;;;;;;35.78;7.63;;;;;;;10.61;92.23;99389.53;5040037;28;20076;-61
2022/06/19 10:49:56;;;;;;;23.63;6.50;;;;;;;10.51;92.37;99398.56;5041868;28;20072;-60
2022/06/19 10:52:32;;;;;;;64.35;7.28;;;;;;;10.45;93.01;99388.28;5041850;28;20061;-60
2022/06/19 10:55:16;;;;;;;45.25;7.07;;;;;;;10.39;93.08;99383.25;5041678;28;20065;-60
2022/06/19 10:58:06;;;;;;;37.92;6.57;;;;;;;10.34;93.36;99381.63;5038732;28;20077;-61
2022/06/19 11:00:36;;;;;;;20.63;6.55;;;;;;;10.39;94.30;99398.94;5040588;28;20095;-62
2022/06/19 11:06:07;;;;;;;22.92;5.72;;;;;;;10.47;94.23;99403.00;4985619;28;20133;-61
2022/06/19 11:08:41;;;;;;;33.97;6.53;;;;;;;10.46;94.01;99408.25;5025580;28;20108;-61
2022/06/19 11:11:18;;;;;;;36.50;6.82;;;;;;;10.26;94.04;99375.75;5044301;28;20053;-59
2022/06/19 11:14:01;;;;;;;27.45;6.13;;;;;;;10.42;94.26;99404.06;5045753;28;20071;-59
2022/06/19 11:16:33;;;;;;;63.05;7.65;;;;;;;10.49;94.24;99416.03;5043756;28;20069;-59
2022/06/19 11:19:04;;;;;;;48.75;6.13;;;;;;;10.44;93.98;99410.09;5045358;28;20099;-59
2022/06/19 11:21:40;;;;;;;41.78;6.13;;;;;;;10.47;94.20;99412.59;5045630;28;20116;-59
2022/06/19 11:24:28;;;;;;;35.85;6.65;;;;;;;10.27;93.98;99380.06;5045443;28;20052;-59
2022/06/19 11:26:59;;;;;;;127.70;8.45;;;;;;;10.47;93.49;99407.38;5045648;28;20593;-59
2022/06/19 11:29:33;;;;;;;180.57;10.13;;;;;;;10.39;93.34;99404.16;5045729;28;20053;-59
2022/06/19 11:32:11;;;;;;;179.85;9.13;;;;;;;10.26;93.33;99409.69;5044482;28;20166;-59
2022/06/19 11:34:47;;;;;;;60.97;6.97;;;;;;;10.19;93.84;99395.09;5044931;28;20064;-59
2022/06/19 11:37:22;;;;;;;75.90;7.82;;;;;;;10.14;94.27;99399.59;5045654;28;20053;-59
2022/06/19 11:39:55;;;;;;;133.45;7.93;;;;;;;10.27;94.62;99416.63;5044863;28;20298;-59
2022/06/19 11:42:33;;;;;;;66.30;7.75;;;;;;;10.28;94.60;99413.16;5044746;28;20284;-60
2022/06/19 11:45:07;;;;;;;135.93;9.57;;;;;;;10.27;94.81;99406.16;5044751;28;20090;-60
2022/06/19 11:47:41;;;;;;;118.43;8.43;;;;;;;10.28;94.30;99405.31;5045026;28;20048;-59
2022/06/19 11:50:18;;;;;;;73.05;7.40;;;;;;;10.10;94.33;99408.41;5044869;28;20450;-59
2022/06/19 11:52:53;;;;;;;101.57;7.70;;;;;;;10.07;94.90;99398.91;5045399;28;20064;-59
2022/06/19 11:55:31;;;;;;;129.60;9.40;;;;;;;10.02;94.71;99390.34;5044712;28;20124;-59
2022/06/19 11:58:14;;;;;;;57.78;8.30;;;;;;;9.97;95.15;99391.38;5043895;28;20044;-60
2022/06/19 12:00:54;;;;;;;72.75;7.93;;;;;;;9.99;95.70;99389.59;5044560;28;20256;-60
2022/06/19 12:03:30;;;;;;;97.13;9.25;;;;;;;10.04;96.02;99392.94;5044789;28;20053;-61
2022/06/19 12:06:03;;;;;;;124.88;9.18;;;;;;;9.56;95.86;99313.38;5044460;28;20100;-60
2022/06/19 12:08:39;;;;;;;96.60;8.27;;;;;;;9.91;95.92;99382.81;5044849;28;20142;-60
2022/06/19 12:11:11;;;;;;;113.65;8.10;;;;;;;9.76;96.37;99362.38;5044521;28;20100;-60